createdAt,value
2022-08-18T00:00:03.640Z,19.20
2022-08-18T00:01:09.698Z,19.20
2022-08-18T00:02:31.687Z,19.20
2022-08-18T00:03:56.989Z,19.20
2022-08-18T00:05:13.767Z,19.20
2022-08-18T00:06:20.362Z,19.20
2022-08-18T00:07:34.577Z,19.20
2022-08-18T00:09:08.231Z,19.20
2022-08-18T00:10:19.777Z,19.20
2022-08-18T00:11:41.588Z,19.20
2022-08-18T00:12:58.622Z,19.20
2022-08-18T00:14:26.688Z,19.20
2022-08-18T00:15:41.796Z,19.20
2022-08-18T00:16:56.885Z,19.20
2022-08-18T00:18:07.821Z,19.10
2022-08-18T00:19:16.739Z,19.10
2022-08-18T00:20:26.582Z,19.10
2022-08-18T00:21:37.702Z,19.10
2022-08-18T00:22:59.888Z,19.10
2022-08-18T00:24:04.689Z,19.10
2022-08-18T00:25:24.091Z,19.10
2022-08-18T00:26:37.084Z,19.10
2022-08-18T00:27:45.592Z,19.10
2022-08-18T00:28:57.907Z,19.10
2022-08-18T00:30:10.832Z,19.00
2022-08-18T00:31:19.081Z,19.00
2022-08-18T00:32:40.179Z,19.00
2022-08-18T00:34:01.701Z,19.00
2022-08-18T00:35:18.423Z,19.00
2022-08-18T00:36:23.842Z,19.00
2022-08-18T00:37:34.344Z,19.00
2022-08-18T00:38:41.129Z,19.00
2022-08-18T00:39:49.002Z,18.90
2022-08-18T00:40:53.851Z,18.90
2022-08-18T00:42:27.571Z,18.90
2022-08-18T00:43:47.753Z,18.90
2022-08-18T00:44:57.348Z,18.90
2022-08-18T00:46:04.478Z,18.90
2022-08-18T00:47:16.447Z,18.90
2022-08-18T00:48:57.240Z,18.80
2022-08-18T00:50:05.940Z,18.80
2022-08-18T00:51:17.042Z,18.80
2022-08-18T00:52:37.634Z,18.80
2022-08-18T00:53:53.703Z,18.80
2022-08-18T00:55:02.006Z,18.80
2022-08-18T00:57:27.290Z,18.80
2022-08-18T00:58:41.571Z,18.80
2022-08-18T00:59:58.252Z,18.70
2022-08-18T01:01:06.308Z,18.70
2022-08-18T01:02:22.047Z,18.70
2022-08-18T01:03:39.645Z,18.70
2022-08-18T01:05:06.957Z,18.60
2022-08-18T01:06:34.082Z,18.60
2022-08-18T01:07:52.627Z,18.60
2022-08-18T01:09:03.454Z,18.60
2022-08-18T01:10:08.172Z,18.60
2022-08-18T01:11:24.919Z,18.50
2022-08-18T01:12:45.838Z,18.50
2022-08-18T01:13:56.628Z,18.50
2022-08-18T01:15:07.063Z,18.50
2022-08-18T01:16:35.979Z,18.50
2022-08-18T01:18:17.270Z,18.50
2022-08-18T01:19:45.826Z,18.40
2022-08-18T01:21:30.865Z,18.40
2022-08-18T01:22:44.528Z,18.40
2022-08-18T01:23:56.327Z,18.40
2022-08-18T01:25:21.682Z,18.40
2022-08-18T01:26:45.871Z,18.40
2022-08-18T01:27:50.323Z,18.30
2022-08-18T01:29:11.672Z,18.30
2022-08-18T01:30:36.648Z,18.30
2022-08-18T01:31:54.920Z,18.30
2022-08-18T01:33:02.239Z,18.30
2022-08-18T01:34:14.167Z,18.30
2022-08-18T01:35:25.419Z,18.30
2022-08-18T01:36:42.137Z,18.30
2022-08-18T01:38:05.808Z,18.30
2022-08-18T01:39:16.034Z,18.30
2022-08-18T01:41:17.269Z,18.30
2022-08-18T01:42:07.624Z,18.30
2022-08-18T01:43:21.715Z,18.30
2022-08-18T01:44:25.737Z,18.20
2022-08-18T01:45:31.307Z,18.20
2022-08-18T01:46:41.864Z,18.20
2022-08-18T01:47:47.927Z,18.20
2022-08-18T01:49:01.422Z,18.20
2022-08-18T01:50:10.845Z,18.20
2022-08-18T01:51:39.787Z,18.20
2022-08-18T01:52:51.428Z,18.20
2022-08-18T01:53:56.874Z,18.20
2022-08-18T01:55:04.736Z,18.20
2022-08-18T01:56:19.302Z,18.20
2022-08-18T01:57:35.444Z,18.20
2022-08-18T01:58:49.240Z,18.10
2022-08-18T01:59:58.073Z,18.10
2022-08-18T02:01:02.059Z,18.10
2022-08-18T02:02:06.333Z,18.10
2022-08-18T02:03:15.258Z,18.10
2022-08-18T02:04:36.443Z,18.10
2022-08-18T02:05:44.766Z,18.10
2022-08-18T02:06:50.238Z,18.10
2022-08-18T02:08:06.828Z,18.10
2022-08-18T02:09:09.573Z,18.10
2022-08-18T02:10:24.169Z,18.10
2022-08-18T02:11:26.967Z,18.10
2022-08-18T02:12:33.852Z,18.10
2022-08-18T02:13:37.467Z,18.10
2022-08-18T02:14:41.774Z,18.10
2022-08-18T02:15:45.597Z,18.10
2022-08-18T02:16:48.306Z,18.00
2022-08-18T02:17:52.120Z,18.00
2022-08-18T02:18:54.817Z,18.00
2022-08-18T02:19:58.336Z,18.00
2022-08-18T02:21:10.502Z,18.00
2022-08-18T02:22:19.536Z,18.00
2022-08-18T02:23:22.708Z,18.00
2022-08-18T02:24:26.456Z,18.00
2022-08-18T02:25:31.432Z,17.90
2022-08-18T02:26:33.959Z,17.90
2022-08-18T02:27:37.740Z,17.90
2022-08-18T02:28:40.547Z,17.90
2022-08-18T02:29:46.331Z,17.90
2022-08-18T02:30:55.261Z,17.90
2022-08-18T02:32:08.874Z,17.90
2022-08-18T02:33:22.527Z,17.80
2022-08-18T02:34:29.683Z,17.80
2022-08-18T02:35:36.635Z,17.80
2022-08-18T02:36:41.893Z,17.80
2022-08-18T02:37:48.427Z,17.80
2022-08-18T02:38:59.316Z,17.80
2022-08-18T02:40:14.784Z,17.80
2022-08-18T02:41:36.390Z,17.80
2022-08-18T02:42:44.596Z,17.80
2022-08-18T02:43:59.573Z,17.80
2022-08-18T02:45:06.363Z,17.80
2022-08-18T02:46:18.163Z,17.80
2022-08-18T02:47:22.078Z,17.80
2022-08-18T02:48:25.171Z,17.90
2022-08-18T02:49:35.837Z,17.90
2022-08-18T02:50:45.168Z,17.90
2022-08-18T02:51:52.223Z,17.90
2022-08-18T02:52:54.792Z,17.90
2022-08-18T02:54:08.412Z,17.90
2022-08-18T02:55:18.479Z,17.90
2022-08-18T02:56:40.059Z,17.90
2022-08-18T02:57:47.168Z,17.90
2022-08-18T02:59:00.005Z,17.90
2022-08-18T03:00:05.612Z,17.90
2022-08-18T03:01:08.860Z,17.90
2022-08-18T03:02:15.941Z,17.90
2022-08-18T03:03:18.748Z,17.90
2022-08-18T03:04:34.786Z,17.90
2022-08-18T03:05:38.358Z,17.90
2022-08-18T03:06:56.729Z,17.90
2022-08-18T03:08:08.105Z,17.90
2022-08-18T03:09:16.202Z,17.90
2022-08-18T03:10:33.368Z,17.90
2022-08-18T03:11:44.343Z,17.90
2022-08-18T03:12:47.214Z,17.90
2022-08-18T03:13:51.889Z,17.90
2022-08-18T03:15:01.347Z,17.90
2022-08-18T03:16:08.397Z,17.90
2022-08-18T03:17:16.174Z,17.90
2022-08-18T03:18:25.272Z,17.90
2022-08-18T03:19:32.783Z,17.90
2022-08-18T03:20:49.654Z,17.90
2022-08-18T03:21:55.095Z,17.90
2022-08-18T03:23:05.532Z,17.90
2022-08-18T03:24:19.681Z,17.90
2022-08-18T03:25:35.584Z,17.80
2022-08-18T03:26:45.702Z,17.80
2022-08-18T03:27:51.768Z,17.80
2022-08-18T03:28:56.240Z,17.80
2022-08-18T03:30:11.306Z,17.80
2022-08-18T03:31:23.943Z,17.80
2022-08-18T03:32:27.947Z,17.80
2022-08-18T03:33:38.496Z,17.80
2022-08-18T03:34:44.151Z,17.80
2022-08-18T03:35:46.834Z,17.80
2022-08-18T03:36:56.162Z,17.80
2022-08-18T03:37:59.818Z,17.80
2022-08-18T03:39:09.841Z,17.80
2022-08-18T03:40:20.317Z,17.80
2022-08-18T03:41:44.529Z,17.80
2022-08-18T03:42:59.492Z,17.70
2022-08-18T03:44:07.518Z,17.70
2022-08-18T03:45:17.850Z,17.70
2022-08-18T03:46:28.691Z,17.70
2022-08-18T03:47:35.595Z,17.70
2022-08-18T03:48:51.431Z,17.70
2022-08-18T03:49:55.090Z,17.70
2022-08-18T03:51:07.001Z,17.70
2022-08-18T03:52:12.290Z,17.70
2022-08-18T03:53:15.190Z,17.70
2022-08-18T03:54:19.391Z,17.70
2022-08-18T03:55:22.569Z,17.70
2022-08-18T03:56:31.254Z,17.70
2022-08-18T03:57:43.247Z,17.70
2022-08-18T03:59:21.710Z,17.70
2022-08-18T04:00:27.678Z,17.80
2022-08-18T04:01:39.624Z,17.80
2022-08-18T04:02:48.091Z,17.80
2022-08-18T04:03:58.393Z,17.80
2022-08-18T04:05:05.445Z,17.80
2022-08-18T04:06:18.451Z,17.80
2022-08-18T04:07:35.865Z,17.80
2022-08-18T04:08:40.137Z,17.80
2022-08-18T04:09:53.234Z,17.80
2022-08-18T04:11:01.096Z,17.80
2022-08-18T04:12:33.365Z,17.80
2022-08-18T04:14:02.519Z,17.80
2022-08-18T04:15:09.708Z,17.80
2022-08-18T04:16:20.643Z,17.80
2022-08-18T04:17:25.235Z,17.80
2022-08-18T04:18:29.814Z,17.80
2022-08-18T04:19:34.729Z,17.80
2022-08-18T04:20:59.597Z,17.80
2022-08-18T04:22:17.145Z,17.80
2022-08-18T04:23:23.640Z,17.80
2022-08-18T04:24:32.083Z,17.80
2022-08-18T04:25:44.844Z,17.80
2022-08-18T04:26:54.952Z,17.80
2022-08-18T04:28:29.669Z,17.80
2022-08-18T04:29:37.860Z,17.80
2022-08-18T04:30:53.771Z,17.80
2022-08-18T04:32:04.805Z,17.80
2022-08-18T04:33:12.817Z,17.80
2022-08-18T04:34:26.769Z,17.80
2022-08-18T04:35:30.977Z,17.80
2022-08-18T04:36:41.735Z,17.80
2022-08-18T04:37:49.713Z,17.70
2022-08-18T04:39:14.055Z,17.80
2022-08-18T04:40:20.218Z,17.80
2022-08-18T04:41:30.613Z,17.70
2022-08-18T04:42:33.441Z,17.80
2022-08-18T04:43:43.005Z,17.80
2022-08-18T04:44:53.342Z,17.70
2022-08-18T04:46:01.830Z,17.70
2022-08-18T04:47:15.182Z,17.70
2022-08-18T04:48:18.407Z,17.70
2022-08-18T04:49:40.276Z,17.70
2022-08-18T04:50:43.481Z,17.70
2022-08-18T04:52:34.024Z,17.80
2022-08-18T04:53:51.911Z,17.70
2022-08-18T04:54:57.217Z,17.80
2022-08-18T04:56:01.205Z,17.70
2022-08-18T04:57:10.675Z,17.70
2022-08-18T04:58:17.386Z,17.80
2022-08-18T04:59:28.964Z,17.80
2022-08-18T05:00:42.462Z,17.80
2022-08-18T05:01:52.456Z,17.80
2022-08-18T05:03:10.702Z,17.80
2022-08-18T05:04:28.869Z,17.80
2022-08-18T05:05:38.492Z,17.80
2022-08-18T05:06:50.517Z,17.80
2022-08-18T05:08:00.607Z,17.90
2022-08-18T05:09:16.569Z,17.90
2022-08-18T05:10:28.992Z,18.00
2022-08-18T05:11:37.719Z,18.10
2022-08-18T05:12:55.991Z,18.20
2022-08-18T05:14:12.786Z,18.30
2022-08-18T05:15:20.457Z,18.40
2022-08-18T05:16:48.088Z,18.50
2022-08-18T05:17:59.497Z,18.60
2022-08-18T05:19:12.424Z,18.70
2022-08-18T05:20:26.224Z,18.70
2022-08-18T05:21:37.322Z,18.70
2022-08-18T05:22:45.666Z,18.80
2022-08-18T05:24:03.944Z,18.80
2022-08-18T05:25:16.500Z,18.80
2022-08-18T05:26:38.160Z,18.80
2022-08-18T05:27:47.040Z,18.80
2022-08-18T05:28:55.676Z,18.80
2022-08-18T05:30:11.435Z,18.80
2022-08-18T05:31:27.505Z,18.90
2022-08-18T05:32:47.827Z,18.90
2022-08-18T05:33:55.790Z,18.90
2022-08-18T05:35:12.186Z,18.90
2022-08-18T05:36:40.324Z,19.00
2022-08-18T05:38:02.481Z,19.00
2022-08-18T05:39:24.883Z,19.10
2022-08-18T05:40:37.803Z,19.10
2022-08-18T05:41:56.924Z,19.20
2022-08-18T05:43:01.555Z,19.20
2022-08-18T05:44:17.635Z,19.30
2022-08-18T05:45:24.376Z,19.40
2022-08-18T05:46:40.813Z,19.60
2022-08-18T05:48:07.349Z,19.80
2022-08-18T05:49:19.552Z,20.00
2022-08-18T05:50:38.010Z,20.30
2022-08-18T05:51:48.172Z,20.60
2022-08-18T05:53:02.334Z,20.90
2022-08-18T05:54:33.836Z,21.20
2022-08-18T05:56:05.954Z,21.50
2022-08-18T05:57:19.657Z,21.80
2022-08-18T05:58:39.635Z,22.20
2022-08-18T05:59:49.612Z,22.50
2022-08-18T06:02:28.510Z,23.20
2022-08-18T06:03:52.058Z,23.50
2022-08-18T06:05:10.155Z,23.80
2022-08-18T06:06:28.703Z,24.10
2022-08-18T06:07:46.887Z,24.40
2022-08-18T06:09:09.617Z,24.70
2022-08-18T06:10:21.132Z,25.00
2022-08-18T06:11:29.523Z,25.20
2022-08-18T06:12:37.745Z,25.40
2022-08-18T06:13:43.530Z,25.70
2022-08-18T06:14:49.679Z,25.90
2022-08-18T06:16:14.363Z,26.10
2022-08-18T06:18:01.151Z,26.30
2022-08-18T06:19:34.376Z,26.60
2022-08-18T06:21:12.372Z,26.90
2022-08-18T06:22:52.140Z,27.10
2022-08-18T06:24:21.466Z,27.40
2022-08-18T06:25:38.606Z,27.70
2022-08-18T06:26:51.022Z,27.90
2022-08-18T06:28:16.054Z,28.10
2022-08-18T06:29:42.113Z,28.30
2022-08-18T06:32:29.809Z,28.70
2022-08-18T06:33:47.861Z,28.90
2022-08-18T06:35:20.557Z,29.20
2022-08-18T06:36:42.207Z,29.40
2022-08-18T06:38:38.604Z,29.60
2022-08-18T06:39:57.294Z,29.80
2022-08-18T06:41:42.124Z,30.10
2022-08-18T06:42:53.273Z,30.20
2022-08-18T06:44:10.571Z,30.50
2022-08-18T06:45:25.113Z,30.70
2022-08-18T06:47:04.597Z,30.90
2022-08-18T06:48:20.566Z,31.10
2022-08-18T06:49:43.042Z,31.30
2022-08-18T06:52:33.881Z,31.70
2022-08-18T06:54:03.282Z,31.90
2022-08-18T06:55:22.758Z,32.10
2022-08-18T06:56:41.068Z,32.20
2022-08-18T06:57:59.188Z,32.40
2022-08-18T06:59:41.202Z,32.50
2022-08-18T07:01:14.158Z,32.60
2022-08-18T07:02:42.537Z,32.80
2022-08-18T07:03:56.771Z,32.90
2022-08-18T07:05:12.837Z,33.00
2022-08-18T07:06:38.563Z,33.10
2022-08-18T07:07:45.326Z,33.20
2022-08-18T07:08:55.634Z,33.30
2022-08-18T07:10:30.392Z,33.40
2022-08-18T07:11:44.963Z,33.50
2022-08-18T07:13:06.882Z,33.70
2022-08-18T07:14:25.369Z,33.80
2022-08-18T07:15:32.224Z,34.10
2022-08-18T07:18:07.814Z,34.40
2022-08-18T07:19:16.965Z,34.60
2022-08-18T07:20:32.179Z,34.70
2022-08-18T07:21:40.479Z,34.70
2022-08-18T07:23:00.150Z,34.90
2022-08-18T07:24:24.927Z,34.80
2022-08-18T07:25:45.607Z,34.80
2022-08-18T07:27:03.841Z,34.80
2022-08-18T07:28:10.411Z,34.60
2022-08-18T07:29:18.491Z,34.50
2022-08-18T07:30:34.691Z,34.30
2022-08-18T07:31:48.061Z,34.30
2022-08-18T07:33:04.520Z,34.30
2022-08-18T07:34:18.637Z,34.20
2022-08-18T07:35:37.378Z,34.20
2022-08-18T07:36:59.046Z,34.20
2022-08-18T07:38:41.323Z,34.30
2022-08-18T07:39:55.819Z,34.30
2022-08-18T07:41:15.054Z,34.40
2022-08-18T07:44:19.095Z,34.80
2022-08-18T07:45:46.468Z,35.10
2022-08-18T07:47:04.120Z,35.40
2022-08-18T07:48:52.274Z,35.60
2022-08-18T07:50:17.078Z,35.90
2022-08-18T07:51:37.620Z,36.30
2022-08-18T07:52:54.388Z,36.60
2022-08-18T07:54:50.105Z,36.70
2022-08-18T07:56:18.751Z,36.80
2022-08-18T07:57:42.061Z,36.80
2022-08-18T07:59:01.492Z,36.70
2022-08-18T08:00:30.791Z,36.70
2022-08-18T08:02:31.023Z,36.80
2022-08-18T08:04:00.338Z,37.20
2022-08-18T08:05:18.337Z,37.50
2022-08-18T08:07:06.454Z,37.60
2022-08-18T08:08:33.706Z,37.40
2022-08-18T08:09:56.618Z,37.40
2022-08-18T08:11:19.448Z,37.40
2022-08-18T08:14:44.740Z,37.90
2022-08-18T08:16:10.417Z,38.40
2022-08-18T08:17:32.652Z,38.70
2022-08-18T08:20:19.411Z,39.50
2022-08-18T08:21:38.049Z,39.80
2022-08-18T08:22:59.891Z,40.30
2022-08-18T08:24:22.632Z,40.60
2022-08-18T08:27:03.381Z,41.30
2022-08-18T08:28:23.509Z,41.60
2022-08-18T08:29:50.539Z,42.10
2022-08-18T08:31:35.217Z,42.50
2022-08-18T08:32:51.859Z,42.90
2022-08-18T08:34:10.589Z,43.40
2022-08-18T08:35:50.128Z,43.90
2022-08-18T08:36:55.732Z,44.30
2022-08-18T08:38:39.380Z,44.70
2022-08-18T08:40:00.404Z,45.10
2022-08-18T08:41:12.021Z,45.50
2022-08-18T08:42:30.534Z,45.90
2022-08-18T08:43:43.123Z,46.20
2022-08-18T08:45:00.076Z,46.60
2022-08-18T08:46:15.237Z,46.90
2022-08-18T08:47:25.261Z,47.20
2022-08-18T08:48:36.457Z,47.30
2022-08-18T08:49:47.331Z,47.20
2022-08-18T08:51:31.926Z,47.10
2022-08-18T08:52:50.526Z,46.70
2022-08-18T08:54:10.605Z,46.10
2022-08-18T08:55:27.634Z,45.40
2022-08-18T08:56:47.093Z,45.00
2022-08-18T08:58:05.790Z,44.90
2022-08-18T08:59:17.881Z,44.80
2022-08-18T09:00:24.479Z,44.60
2022-08-18T09:01:41.227Z,44.20
2022-08-18T09:04:58.150Z,42.90
2022-08-18T09:06:42.260Z,41.90
2022-08-18T09:08:20.146Z,41.00
2022-08-18T09:10:07.872Z,40.10
2022-08-18T09:11:44.099Z,39.10
2022-08-18T09:13:08.100Z,38.10
2022-08-18T09:14:56.959Z,37.30
2022-08-18T09:16:23.541Z,36.50
2022-08-18T09:18:04.204Z,35.80
2022-08-18T09:19:36.262Z,35.70
2022-08-18T09:20:59.715Z,36.20
2022-08-18T09:22:16.242Z,36.80
2022-08-18T09:23:23.806Z,37.50
2022-08-18T09:24:31.738Z,38.30
2022-08-18T09:25:47.949Z,38.90
2022-08-18T09:27:25.331Z,39.80
2022-08-18T09:29:01.504Z,40.70
2022-08-18T09:30:40.017Z,41.70
2022-08-18T09:32:16.149Z,42.30
2022-08-18T09:33:34.670Z,42.90
2022-08-18T09:35:06.177Z,43.50
2022-08-18T09:36:46.197Z,43.90
2022-08-18T09:38:26.805Z,44.30
2022-08-18T09:39:56.732Z,44.70
2022-08-18T09:41:32.707Z,45.20
2022-08-18T09:43:01.169Z,45.80
2022-08-18T09:44:21.597Z,46.30
2022-08-18T09:46:06.223Z,46.70
2022-08-18T09:48:00.644Z,47.20
2022-08-18T09:49:51.055Z,47.50
2022-08-18T09:51:32.130Z,47.90
2022-08-18T09:52:58.984Z,48.30
2022-08-18T09:54:21.020Z,48.60
2022-08-18T09:56:01.590Z,48.80
2022-08-18T09:57:43.775Z,49.00
2022-08-18T09:59:09.827Z,49.20
2022-08-18T10:00:35.302Z,49.30
2022-08-18T10:02:20.101Z,49.40
2022-08-18T10:03:42.086Z,49.40
2022-08-18T10:05:36.554Z,49.10
2022-08-18T10:06:48.842Z,48.60
2022-08-18T10:08:43.114Z,47.70
2022-08-18T10:11:01.270Z,47.00
2022-08-18T10:12:57.911Z,45.70
2022-08-18T10:14:37.343Z,44.20
2022-08-18T10:15:58.742Z,43.10
2022-08-18T10:17:30.090Z,42.30
2022-08-18T10:18:54.185Z,42.00
2022-08-18T10:20:07.670Z,42.10
2022-08-18T10:21:18.807Z,42.40
2022-08-18T10:22:50.490Z,42.80
2022-08-18T10:24:38.173Z,43.30
2022-08-18T10:25:47.374Z,43.90
2022-08-18T10:27:32.934Z,44.40
2022-08-18T10:29:08.994Z,45.00
2022-08-18T10:31:18.846Z,45.60
2022-08-18T10:32:54.478Z,46.20
2022-08-18T10:34:17.062Z,46.70
2022-08-18T10:35:59.543Z,47.10
2022-08-18T10:37:06.306Z,47.50
2022-08-18T10:38:17.315Z,47.80
2022-08-18T10:39:28.948Z,48.00
2022-08-18T10:40:32.437Z,48.30
2022-08-18T10:41:54.219Z,48.40
2022-08-18T10:43:26.893Z,48.40
2022-08-18T10:44:38.860Z,48.20
2022-08-18T10:49:25.402Z,46.40
2022-08-18T10:50:41.065Z,45.50
2022-08-18T10:54:26.083Z,44.20
2022-08-18T10:55:49.719Z,43.20
2022-08-18T10:57:00.267Z,42.40
2022-08-18T10:58:35.355Z,41.90
2022-08-18T11:01:41.569Z,40.70
2022-08-18T11:04:59.252Z,39.40
2022-08-18T11:06:09.018Z,38.90
2022-08-18T11:07:23.158Z,38.40
2022-08-18T11:08:26.037Z,38.00
2022-08-18T11:09:32.991Z,37.70
2022-08-18T11:10:57.781Z,37.30
2022-08-18T11:12:08.749Z,37.10
2022-08-18T11:13:23.005Z,36.90
2022-08-18T11:15:22.591Z,36.90
2022-08-18T11:16:43.889Z,37.10
2022-08-18T11:18:10.426Z,37.60
2022-08-18T11:19:36.417Z,38.10
2022-08-18T11:20:47.232Z,38.60
2022-08-18T11:21:53.062Z,39.20
2022-08-18T11:23:00.809Z,39.50
2022-08-18T11:24:14.390Z,39.70
2022-08-18T11:25:34.348Z,39.90
2022-08-18T11:26:52.572Z,39.90
2022-08-18T11:27:58.016Z,40.00
2022-08-18T11:29:00.841Z,40.00
2022-08-18T11:30:12.199Z,39.90
2022-08-18T11:31:16.683Z,39.80
2022-08-18T11:32:29.254Z,39.70
2022-08-18T11:33:33.441Z,39.60
2022-08-18T11:34:52.782Z,39.40
2022-08-18T11:36:17.670Z,39.30
2022-08-18T11:37:27.529Z,39.10
2022-08-18T11:38:33.045Z,38.90
2022-08-18T11:39:49.364Z,38.70
2022-08-18T11:41:13.077Z,38.50
2022-08-18T11:42:26.786Z,38.30
2022-08-18T11:43:40.856Z,38.00
2022-08-18T11:44:45.500Z,37.80
2022-08-18T11:45:56.836Z,37.60
2022-08-18T11:47:14.520Z,37.50
2022-08-18T11:48:29.783Z,37.40
2022-08-18T11:50:04.552Z,37.40
2022-08-18T11:51:23.778Z,37.40
2022-08-18T11:54:00.695Z,37.80
2022-08-18T11:55:24.375Z,38.10
2022-08-18T11:56:45.632Z,38.50
2022-08-18T11:57:58.685Z,38.90
2022-08-18T11:59:09.407Z,39.10
2022-08-18T12:00:43.953Z,39.30
2022-08-18T12:01:54.609Z,39.50
2022-08-18T12:03:02.951Z,39.70
2022-08-18T12:04:23.137Z,39.90
2022-08-18T12:05:28.068Z,40.20
2022-08-18T12:06:33.251Z,40.30
2022-08-18T12:07:37.501Z,40.50
2022-08-18T12:08:58.912Z,40.70
2022-08-18T12:10:26.201Z,40.80
2022-08-18T12:11:36.016Z,40.80
2022-08-18T12:12:46.773Z,40.80
2022-08-18T12:14:31.271Z,40.60
2022-08-18T12:15:44.234Z,40.40
2022-08-18T12:16:54.720Z,40.20
2022-08-18T12:18:00.754Z,39.90
2022-08-18T12:19:07.732Z,39.70
2022-08-18T12:20:17.193Z,39.50
2022-08-18T12:21:23.400Z,39.20
2022-08-18T12:22:31.378Z,38.90
2022-08-18T12:23:38.957Z,38.70
2022-08-18T12:24:54.793Z,38.50
2022-08-18T12:25:57.329Z,38.40
2022-08-18T12:27:01.400Z,38.30
2022-08-18T12:28:15.115Z,38.20
2022-08-18T12:29:24.509Z,38.10
2022-08-18T12:30:31.196Z,38.00
2022-08-18T12:33:10.114Z,37.80
2022-08-18T12:34:26.448Z,37.80
2022-08-18T12:35:29.675Z,37.80
2022-08-18T12:36:34.915Z,37.90
2022-08-18T12:38:08.234Z,38.10
2022-08-18T12:39:09.823Z,38.30
2022-08-18T12:40:13.115Z,38.60
2022-08-18T12:41:22.954Z,38.80
2022-08-18T12:42:26.776Z,39.00
2022-08-18T12:43:32.598Z,39.30
2022-08-18T12:44:36.963Z,39.50
2022-08-18T12:45:44.662Z,39.60
2022-08-18T12:46:49.207Z,39.60
2022-08-18T12:47:52.857Z,39.60
2022-08-18T12:48:56.904Z,39.70
2022-08-18T12:49:59.698Z,39.70
2022-08-18T12:51:05.847Z,39.80
2022-08-18T12:52:11.890Z,39.90
2022-08-18T12:53:17.733Z,39.90
2022-08-18T12:54:36.027Z,40.00
2022-08-18T12:55:59.344Z,40.00
2022-08-18T12:57:07.871Z,40.20
2022-08-18T12:58:12.116Z,40.20
2022-08-18T12:59:19.241Z,40.30
2022-08-18T13:00:21.952Z,40.30
2022-08-18T13:01:33.116Z,40.30
2022-08-18T13:02:35.779Z,40.40
2022-08-18T13:03:52.615Z,40.50
2022-08-18T13:05:08.985Z,40.60
2022-08-18T13:06:13.804Z,40.80
2022-08-18T13:07:21.187Z,40.90
2022-08-18T13:08:30.780Z,41.00
2022-08-18T13:09:52.547Z,41.00
2022-08-18T13:11:00.498Z,41.10
2022-08-18T13:12:20.094Z,41.20
2022-08-18T13:13:29.200Z,41.20
2022-08-18T13:14:33.092Z,41.20
2022-08-18T13:15:37.312Z,41.10
2022-08-18T13:16:54.736Z,41.10
2022-08-18T13:18:00.517Z,41.10
2022-08-18T13:19:07.450Z,41.10
2022-08-18T13:20:18.751Z,41.00
2022-08-18T13:21:21.359Z,41.00
2022-08-18T13:22:32.099Z,40.90
2022-08-18T13:23:36.870Z,40.80
2022-08-18T13:24:39.952Z,40.70
2022-08-18T13:25:47.840Z,40.60
2022-08-18T13:26:51.702Z,40.50
2022-08-18T13:29:05.285Z,40.20
2022-08-18T13:30:31.356Z,40.00
2022-08-18T13:31:34.850Z,39.90
2022-08-18T13:32:58.267Z,39.70
2022-08-18T13:34:04.077Z,39.50
2022-08-18T13:35:13.333Z,39.40
2022-08-18T13:36:17.799Z,39.40
2022-08-18T13:37:21.308Z,39.40
2022-08-18T13:38:27.788Z,39.50
2022-08-18T13:39:34.022Z,39.60
2022-08-18T13:40:45.463Z,39.60
2022-08-18T13:41:52.732Z,39.70
2022-08-18T13:42:57.031Z,39.60
2022-08-18T13:43:59.731Z,39.50
2022-08-18T13:45:24.710Z,39.40
2022-08-18T13:46:31.194Z,39.30
2022-08-18T13:47:38.361Z,39.10
2022-08-18T13:48:42.601Z,38.90
2022-08-18T13:49:52.600Z,38.70
2022-08-18T13:51:04.199Z,38.50
2022-08-18T13:52:21.917Z,38.30
2022-08-18T13:53:50.431Z,38.10
2022-08-18T13:54:54.165Z,37.90
2022-08-18T13:55:59.660Z,37.70
2022-08-18T13:57:03.186Z,37.50
2022-08-18T13:58:17.523Z,37.30
2022-08-18T13:59:27.331Z,37.10
2022-08-18T14:00:31.564Z,36.90
2022-08-18T14:01:49.997Z,36.80
2022-08-18T14:02:57.277Z,36.70
2022-08-18T14:04:00.919Z,36.50
2022-08-18T14:05:07.484Z,36.40
2022-08-18T14:06:13.047Z,36.30
2022-08-18T14:07:19.113Z,36.20
2022-08-18T14:08:27.605Z,36.20
2022-08-18T14:09:37.082Z,36.10
2022-08-18T14:10:42.446Z,36.00
2022-08-18T14:11:51.276Z,36.00
2022-08-18T14:12:58.683Z,35.90
2022-08-18T14:14:04.619Z,35.90
2022-08-18T14:15:13.196Z,35.90
2022-08-18T14:16:18.796Z,35.90
2022-08-18T14:17:28.831Z,36.00
2022-08-18T14:18:31.748Z,36.00
2022-08-18T14:20:01.248Z,36.10
2022-08-18T14:21:23.554Z,36.20
2022-08-18T14:22:44.750Z,36.20
2022-08-18T14:24:10.523Z,36.20
2022-08-18T14:25:36.604Z,36.20
2022-08-18T14:26:50.374Z,36.00
2022-08-18T14:28:12.079Z,35.90
2022-08-18T14:29:16.513Z,35.80
2022-08-18T14:30:21.168Z,35.70
2022-08-18T14:31:25.097Z,35.60
2022-08-18T14:32:30.625Z,35.60
2022-08-18T14:33:50.784Z,35.50
2022-08-18T14:34:59.417Z,35.50
2022-08-18T14:36:09.110Z,35.40
2022-08-18T14:37:15.206Z,35.40
2022-08-18T14:38:21.342Z,35.30
2022-08-18T14:39:24.114Z,35.30
2022-08-18T14:40:37.224Z,35.30
2022-08-18T14:41:54.649Z,35.20
2022-08-18T14:43:00.095Z,35.20
2022-08-18T14:44:13.491Z,35.10
2022-08-18T14:45:31.202Z,35.00
2022-08-18T14:46:38.562Z,35.00
2022-08-18T14:47:46.642Z,34.90
2022-08-18T14:48:57.476Z,34.80
2022-08-18T14:50:01.523Z,34.70
2022-08-18T14:51:05.435Z,34.60
2022-08-18T14:52:13.941Z,34.50
2022-08-18T14:53:20.489Z,34.40
2022-08-18T14:54:28.553Z,34.30
2022-08-18T14:55:39.266Z,34.20
2022-08-18T14:56:43.386Z,34.00
2022-08-18T14:57:49.058Z,33.90
2022-08-18T14:58:51.883Z,33.80
2022-08-18T14:59:55.591Z,33.70
2022-08-18T15:01:02.783Z,33.60
2022-08-18T15:02:14.445Z,33.50
2022-08-18T15:03:17.168Z,33.30
2022-08-18T15:04:20.827Z,33.30
2022-08-18T15:05:25.445Z,33.10
2022-08-18T15:06:29.682Z,33.00
2022-08-18T15:07:34.392Z,33.00
2022-08-18T15:08:40.859Z,32.90
2022-08-18T15:10:15.270Z,32.80
2022-08-18T15:11:24.689Z,32.70
2022-08-18T15:12:28.609Z,32.70
2022-08-18T15:13:35.127Z,32.60
2022-08-18T15:14:38.080Z,32.50
2022-08-18T15:15:51.167Z,32.50
2022-08-18T15:16:56.437Z,32.40
2022-08-18T15:19:04.029Z,32.20
2022-08-18T15:20:29.691Z,32.10
2022-08-18T15:21:51.247Z,32.00
2022-08-18T15:23:14.387Z,31.90
2022-08-18T15:24:40.229Z,31.70
2022-08-18T15:25:52.182Z,31.60
2022-08-18T15:29:27.782Z,31.30
2022-08-18T15:30:32.997Z,31.30
2022-08-18T15:31:51.647Z,31.30
2022-08-18T15:32:59.325Z,31.20
2022-08-18T15:34:06.237Z,31.20
2022-08-18T15:35:11.780Z,31.20
2022-08-18T15:36:21.442Z,31.10
2022-08-18T15:37:36.084Z,31.10
2022-08-18T15:38:40.686Z,31.10
2022-08-18T15:39:44.303Z,31.10
2022-08-18T15:40:57.159Z,31.00
2022-08-18T15:42:10.094Z,31.00
2022-08-18T15:43:17.654Z,31.00
2022-08-18T15:44:23.873Z,31.10
2022-08-18T15:45:35.230Z,31.10
2022-08-18T15:46:40.430Z,31.10
2022-08-18T15:47:48.164Z,31.20
2022-08-18T15:48:52.028Z,31.20
2022-08-18T15:49:55.202Z,31.20
2022-08-18T15:51:06.275Z,31.20
2022-08-18T15:52:14.998Z,31.30
2022-08-18T15:53:29.970Z,31.30
2022-08-18T15:54:33.851Z,31.30
2022-08-18T15:55:42.595Z,31.30
2022-08-18T15:56:55.944Z,31.30
2022-08-18T15:58:13.699Z,31.30
2022-08-18T15:59:22.121Z,31.30
2022-08-18T16:00:32.521Z,31.30
2022-08-18T16:01:41.873Z,31.20
2022-08-18T16:02:50.804Z,31.20
2022-08-18T16:03:55.704Z,31.20
2022-08-18T16:05:10.410Z,31.20
2022-08-18T16:06:27.857Z,31.10
2022-08-18T16:07:41.249Z,31.10
2022-08-18T16:08:49.935Z,31.00
2022-08-18T16:09:53.445Z,31.00
2022-08-18T16:10:57.858Z,30.90
2022-08-18T16:12:00.665Z,30.90
2022-08-18T16:13:07.497Z,30.80
2022-08-18T16:14:10.593Z,30.80
2022-08-18T16:15:19.529Z,30.70
2022-08-18T16:18:46.106Z,30.60
2022-08-18T16:19:50.453Z,30.50
2022-08-18T16:20:56.624Z,30.40
2022-08-18T16:21:59.754Z,30.30
2022-08-18T16:23:06.014Z,30.20
2022-08-18T16:24:09.490Z,30.20
2022-08-18T16:25:14.620Z,30.10
2022-08-18T16:26:18.949Z,30.00
2022-08-18T16:27:23.349Z,30.00
2022-08-18T16:28:34.742Z,29.90
2022-08-18T16:29:48.315Z,29.90
2022-08-18T16:30:50.995Z,29.80
2022-08-18T16:31:54.700Z,29.80
2022-08-18T16:33:02.819Z,29.80
2022-08-18T16:34:06.970Z,29.70
2022-08-18T16:35:11.316Z,29.70
2022-08-18T16:36:16.444Z,29.70
2022-08-18T16:37:19.255Z,29.70
2022-08-18T16:38:24.123Z,29.70
2022-08-18T16:39:26.956Z,29.70
2022-08-18T16:40:31.082Z,29.70